createdAt,value
2022-08-16T00:01:33.840Z,17.15
2022-08-16T00:03:51.137Z,17.14
2022-08-16T00:06:08.184Z,17.11
2022-08-16T00:08:35.929Z,17.14
2022-08-16T00:10:54.202Z,17.11
2022-08-16T00:13:11.307Z,17.05
2022-08-16T00:15:50.815Z,17.04
2022-08-16T00:18:05.824Z,17.05
2022-08-16T00:20:27.164Z,17.03
2022-08-16T00:22:44.340Z,16.98
2022-08-16T00:25:01.765Z,16.89
2022-08-16T00:27:19.048Z,16.86
2022-08-16T00:29:36.858Z,16.85
2022-08-16T00:32:00.923Z,16.81
2022-08-16T00:34:22.196Z,16.80
2022-08-16T00:36:59.111Z,16.76
2022-08-16T00:39:20.727Z,16.76
2022-08-16T00:41:38.140Z,16.73
2022-08-16T00:43:55.529Z,16.67
2022-08-16T00:46:22.274Z,16.68
2022-08-16T00:48:50.328Z,16.68
2022-08-16T00:51:07.324Z,16.65
2022-08-16T00:53:26.154Z,16.65
2022-08-16T00:55:43.402Z,16.61
2022-08-16T00:58:00.960Z,16.67
2022-08-16T01:00:20.166Z,16.70
2022-08-16T01:02:41.631Z,16.62
2022-08-16T01:05:10.943Z,16.56
2022-08-16T01:07:29.712Z,16.56
2022-08-16T01:10:15.786Z,16.54
2022-08-16T01:12:33.179Z,16.49
2022-08-16T01:14:50.257Z,16.46
2022-08-16T01:17:10.672Z,16.42
2022-08-16T01:19:27.605Z,16.37
2022-08-16T01:21:46.280Z,16.36
2022-08-16T01:24:52.920Z,16.35
2022-08-16T01:26:44.531Z,16.31
2022-08-16T01:29:01.712Z,16.27
2022-08-16T01:31:18.782Z,16.24
2022-08-16T01:33:36.111Z,16.21
2022-08-16T01:35:53.457Z,16.20
2022-08-16T01:38:19.670Z,16.27
2022-08-16T01:40:36.912Z,16.19
2022-08-16T01:42:55.511Z,16.14
2022-08-16T01:45:14.452Z,16.12
2022-08-16T01:47:33.077Z,16.10
2022-08-16T01:50:43.274Z,16.06
2022-08-16T01:52:29.711Z,16.05
2022-08-16T01:54:47.560Z,16.00
2022-08-16T01:57:11.498Z,15.96
2022-08-16T01:59:28.792Z,15.96
2022-08-16T02:01:52.530Z,15.95
2022-08-16T02:04:48.282Z,15.94
2022-08-16T02:06:54.062Z,15.96
2022-08-16T02:09:11.693Z,15.92
2022-08-16T02:11:47.555Z,15.90
2022-08-16T02:14:06.562Z,15.88
2022-08-16T02:16:35.528Z,15.88
2022-08-16T02:18:52.622Z,15.86
2022-08-16T02:21:09.875Z,15.85
2022-08-16T02:23:29.764Z,15.88
2022-08-16T02:25:52.575Z,15.90
2022-08-16T02:28:11.281Z,15.88
2022-08-16T02:30:37.504Z,15.85
2022-08-16T02:33:03.088Z,15.83
2022-08-16T02:35:23.130Z,15.75
2022-08-16T02:37:52.447Z,15.71
2022-08-16T02:40:11.541Z,15.73
2022-08-16T02:42:29.272Z,15.71
2022-08-16T02:44:49.749Z,15.68
2022-08-16T02:47:09.243Z,15.66
2022-08-16T02:49:57.966Z,15.63
2022-08-16T02:52:03.192Z,15.61
2022-08-16T02:54:20.226Z,15.59
2022-08-16T02:56:41.000Z,15.56
2022-08-16T02:59:11.415Z,15.58
2022-08-16T03:01:36.679Z,15.54
2022-08-16T03:04:41.365Z,15.50
2022-08-16T03:06:42.263Z,15.48
2022-08-16T03:09:00.023Z,15.49
2022-08-16T03:11:21.532Z,15.49
2022-08-16T03:13:40.099Z,15.43
2022-08-16T03:15:57.488Z,15.47
2022-08-16T03:18:18.682Z,15.45
2022-08-16T03:20:55.815Z,15.42
2022-08-16T03:23:13.208Z,15.37
2022-08-16T03:25:44.175Z,15.35
2022-08-16T03:28:01.845Z,15.33
2022-08-16T03:30:25.843Z,15.31
2022-08-16T03:32:42.804Z,15.25
2022-08-16T03:35:00.914Z,15.25
2022-08-16T03:37:18.105Z,15.26
2022-08-16T03:39:42.834Z,15.28
2022-08-16T03:42:00.449Z,15.31
2022-08-16T03:44:44.973Z,15.32
2022-08-16T03:46:55.757Z,15.36
2022-08-16T03:49:15.321Z,15.33
2022-08-16T03:51:33.627Z,15.36
2022-08-16T03:53:57.820Z,15.41
2022-08-16T03:56:19.525Z,15.42
2022-08-16T03:58:37.336Z,15.40
2022-08-16T04:00:56.738Z,15.40
2022-08-16T04:03:18.640Z,15.39
2022-08-16T04:05:36.036Z,15.37
2022-08-16T04:07:54.967Z,15.33
2022-08-16T04:10:36.847Z,15.34
2022-08-16T04:13:20.457Z,15.35
2022-08-16T04:15:28.919Z,15.36
2022-08-16T04:17:46.288Z,15.42
2022-08-16T04:20:08.693Z,15.38
2022-08-16T04:22:41.170Z,15.35
2022-08-16T04:25:00.087Z,15.31
2022-08-16T04:27:18.684Z,15.25
2022-08-16T04:29:44.200Z,15.17
2022-08-16T04:32:03.514Z,15.19
2022-08-16T04:34:20.536Z,15.16
2022-08-16T04:36:41.927Z,15.14
2022-08-16T04:39:06.240Z,15.15
2022-08-16T04:41:32.822Z,15.11
2022-08-16T04:43:54.519Z,15.11
2022-08-16T04:47:00.192Z,15.12
2022-08-16T04:48:50.740Z,15.11
2022-08-16T04:51:11.922Z,15.10
2022-08-16T04:53:29.479Z,15.07
2022-08-16T04:55:46.559Z,15.08
2022-08-16T04:58:44.009Z,15.11
2022-08-16T05:00:47.644Z,15.11
2022-08-16T05:03:07.535Z,15.13
2022-08-16T05:05:25.301Z,15.14
2022-08-16T05:07:58.370Z,15.15
2022-08-16T05:10:20.082Z,15.12
2022-08-16T05:12:40.244Z,15.15
2022-08-16T05:15:03.084Z,15.16
2022-08-16T05:17:24.799Z,15.17
2022-08-16T05:19:46.555Z,15.15
2022-08-16T05:22:17.958Z,15.17
2022-08-16T05:24:35.650Z,15.15
2022-08-16T05:26:54.205Z,15.17
2022-08-16T05:29:15.382Z,15.22
2022-08-16T05:31:32.476Z,15.28
2022-08-16T05:33:54.589Z,15.34
2022-08-16T05:36:14.311Z,15.40
2022-08-16T05:38:36.497Z,15.42
2022-08-16T05:41:00.113Z,15.47
2022-08-16T05:43:17.452Z,15.46
2022-08-16T05:45:36.563Z,15.45
2022-08-16T05:47:59.427Z,15.45
2022-08-16T05:50:19.313Z,15.49
2022-08-16T05:52:36.638Z,15.49
2022-08-16T05:54:58.719Z,15.51
2022-08-16T05:57:18.676Z,15.51
2022-08-16T05:59:35.737Z,15.57
2022-08-16T06:01:53.917Z,15.65
2022-08-16T06:04:13.743Z,15.77
2022-08-16T06:06:55.835Z,15.87
2022-08-16T06:09:14.380Z,15.96
2022-08-16T06:11:33.192Z,16.08
2022-08-16T06:13:51.188Z,16.19
2022-08-16T06:16:18.359Z,16.36
2022-08-16T06:18:36.653Z,16.49
2022-08-16T06:20:55.818Z,16.59
2022-08-16T06:23:17.443Z,16.72
2022-08-16T06:25:36.179Z,16.87
2022-08-16T06:27:57.514Z,16.94
2022-08-16T06:30:19.821Z,17.07
2022-08-16T06:32:42.973Z,17.16
2022-08-16T06:35:05.657Z,17.26
2022-08-16T06:37:22.880Z,17.40
2022-08-16T06:39:46.676Z,17.53
2022-08-16T06:42:07.249Z,17.67
2022-08-16T06:44:26.976Z,17.83
2022-08-16T06:46:44.115Z,17.99
2022-08-16T06:49:07.663Z,18.14
2022-08-16T06:51:46.448Z,18.28
2022-08-16T06:54:05.039Z,18.44
2022-08-16T06:56:23.810Z,18.52
2022-08-16T06:58:40.839Z,18.66
2022-08-16T07:00:59.861Z,18.79
2022-08-16T07:03:28.224Z,18.88
2022-08-16T07:05:49.645Z,19.03
2022-08-16T07:08:07.593Z,19.17
2022-08-16T07:10:28.458Z,19.32
2022-08-16T07:13:03.342Z,19.45
2022-08-16T07:15:22.006Z,19.66
2022-08-16T07:17:42.576Z,19.79
2022-08-16T07:20:30.344Z,19.88
2022-08-16T07:22:39.723Z,19.92
2022-08-16T07:24:57.153Z,20.01
2022-08-16T07:27:15.421Z,20.07
2022-08-16T07:29:32.428Z,20.08
2022-08-16T07:31:49.492Z,20.11
2022-08-16T07:34:10.228Z,20.17
2022-08-16T07:36:27.548Z,20.26
2022-08-16T07:38:47.095Z,20.36
2022-08-16T07:41:10.043Z,20.48
2022-08-16T07:43:29.047Z,20.67
2022-08-16T07:45:52.810Z,20.90
2022-08-16T07:48:11.484Z,21.07
2022-08-16T07:50:55.942Z,21.26
2022-08-16T07:53:06.337Z,21.45
2022-08-16T07:55:25.275Z,21.67
2022-08-16T07:58:00.912Z,21.83
2022-08-16T08:00:20.281Z,21.95
2022-08-16T08:02:42.567Z,22.14
2022-08-16T08:04:59.716Z,22.26
2022-08-16T08:07:20.856Z,22.41
2022-08-16T08:09:43.360Z,22.63
2022-08-16T08:12:05.568Z,22.88
2022-08-16T08:14:29.661Z,23.07
2022-08-16T08:16:47.616Z,23.17
2022-08-16T08:19:06.432Z,23.27
2022-08-16T08:21:48.734Z,23.39
2022-08-16T08:26:44.908Z,23.62
2022-08-16T08:29:08.555Z,23.76
2022-08-16T08:31:25.971Z,23.84
2022-08-16T08:36:33.299Z,24.19
2022-08-16T08:38:50.827Z,24.34
2022-08-16T08:41:08.014Z,24.36
2022-08-16T08:43:25.780Z,24.54
2022-08-16T08:45:48.223Z,24.70
2022-08-16T08:48:06.130Z,24.73
2022-08-16T08:50:32.164Z,24.74
2022-08-16T08:52:49.975Z,24.77
2022-08-16T08:55:11.029Z,24.89
2022-08-16T08:57:28.606Z,24.97
2022-08-16T08:59:45.936Z,25.15
2022-08-16T09:02:04.463Z,25.33
2022-08-16T09:04:21.553Z,25.36
2022-08-16T09:06:43.117Z,25.51
2022-08-16T09:09:01.739Z,25.61
2022-08-16T09:11:19.347Z,25.84
2022-08-16T09:13:36.671Z,26.00
2022-08-16T09:15:53.676Z,26.23
2022-08-16T09:18:26.312Z,26.19
2022-08-16T09:20:58.429Z,26.33
2022-08-16T09:23:18.415Z,26.48
2022-08-16T09:25:35.543Z,26.54
2022-08-16T09:27:57.937Z,26.83
2022-08-16T09:30:33.625Z,26.91
2022-08-16T09:32:53.284Z,26.88
2022-08-16T09:35:10.703Z,26.97
2022-08-16T09:37:29.852Z,26.83
2022-08-16T09:39:50.279Z,26.82
2022-08-16T09:42:07.893Z,27.11
2022-08-16T09:45:11.422Z,27.20
2022-08-16T09:47:10.496Z,27.23
2022-08-16T09:49:37.070Z,27.39
2022-08-16T09:51:54.514Z,27.27
2022-08-16T09:54:16.744Z,27.36
2022-08-16T09:56:34.593Z,27.59
2022-08-16T09:59:04.849Z,27.79
2022-08-16T10:01:25.127Z,27.99
2022-08-16T10:04:02.864Z,27.93
2022-08-16T10:06:20.351Z,27.92
2022-08-16T10:09:04.673Z,28.08
2022-08-16T10:11:24.590Z,28.17
2022-08-16T10:13:41.902Z,28.23
2022-08-16T10:15:59.248Z,28.37
2022-08-16T10:19:00.222Z,28.68
2022-08-16T10:20:53.489Z,28.77
2022-08-16T10:23:17.023Z,28.72
2022-08-16T10:27:16.135Z,28.83
2022-08-16T10:28:27.571Z,28.68
2022-08-16T10:30:46.511Z,28.68
2022-08-16T10:33:14.970Z,28.20
2022-08-16T10:35:33.326Z,28.23
2022-08-16T10:37:52.874Z,28.26
2022-08-16T10:40:28.455Z,28.44
2022-08-16T10:42:47.069Z,28.46
2022-08-16T10:45:04.299Z,28.61
2022-08-16T10:47:21.788Z,28.78
2022-08-16T10:49:39.219Z,29.05
2022-08-16T10:52:02.019Z,28.98
2022-08-16T10:54:29.543Z,28.99
2022-08-16T10:56:55.539Z,29.11
2022-08-16T10:59:32.728Z,29.21
2022-08-16T11:05:05.402Z,29.60
2022-08-16T11:07:08.602Z,29.94
2022-08-16T11:09:43.225Z,29.95
2022-08-16T11:12:13.953Z,30.14
2022-08-16T11:14:32.740Z,30.34
2022-08-16T11:17:10.885Z,30.24
2022-08-16T11:19:28.345Z,30.39
2022-08-16T11:24:41.617Z,30.66
2022-08-16T11:29:38.236Z,30.28
2022-08-16T11:31:55.268Z,29.95
2022-08-16T11:34:12.551Z,30.34
2022-08-16T11:36:30.634Z,30.59
2022-08-16T11:38:55.692Z,30.74
2022-08-16T11:41:15.719Z,30.82
2022-08-16T11:43:32.782Z,30.88
2022-08-16T11:45:53.676Z,30.97
2022-08-16T11:48:12.297Z,31.01
2022-08-16T11:50:29.340Z,30.87
2022-08-16T11:52:46.956Z,30.94
2022-08-16T11:55:04.035Z,31.09
2022-08-16T11:57:25.370Z,31.31
2022-08-16T11:59:43.875Z,31.39
2022-08-16T12:02:04.312Z,31.43
2022-08-16T12:04:38.401Z,31.67
2022-08-16T12:06:55.728Z,31.75
2022-08-16T12:09:12.809Z,31.64
2022-08-16T12:11:33.177Z,31.52
2022-08-16T12:13:50.666Z,31.72
2022-08-16T12:16:09.205Z,31.71
2022-08-16T12:18:27.401Z,31.97
2022-08-16T12:20:45.751Z,31.92
2022-08-16T12:23:03.374Z,31.89
2022-08-16T12:25:23.230Z,31.74
2022-08-16T12:27:41.693Z,31.68
2022-08-16T12:29:58.934Z,31.35
2022-08-16T12:32:37.382Z,31.92
2022-08-16T12:34:53.263Z,32.12
2022-08-16T12:37:10.941Z,31.96
2022-08-16T12:39:29.334Z,31.77
2022-08-16T12:41:47.466Z,31.39
2022-08-16T12:44:05.176Z,31.24
2022-08-16T12:46:22.856Z,31.24
2022-08-16T12:48:42.370Z,30.86
2022-08-16T12:51:01.139Z,30.37
2022-08-16T12:53:19.609Z,30.06
2022-08-16T12:55:41.892Z,29.77
2022-08-16T12:58:00.931Z,29.90
2022-08-16T13:00:26.540Z,29.44
2022-08-16T13:02:46.179Z,29.31
2022-08-16T13:05:03.671Z,29.23
2022-08-16T13:07:26.949Z,29.48
2022-08-16T13:09:44.740Z,29.83
2022-08-16T13:12:03.423Z,30.20
2022-08-16T13:14:32.173Z,30.62
2022-08-16T13:16:55.477Z,30.78
2022-08-16T13:19:15.505Z,31.13
2022-08-16T13:21:33.085Z,31.32
2022-08-16T13:23:51.410Z,31.67
2022-08-16T13:26:17.485Z,31.75
2022-08-16T13:28:35.375Z,31.71
2022-08-16T13:30:52.400Z,31.81
2022-08-16T13:33:13.350Z,31.77
2022-08-16T13:35:34.755Z,31.46
2022-08-16T13:37:53.392Z,31.65
2022-08-16T13:40:19.833Z,31.83
2022-08-16T13:42:41.487Z,32.01
2022-08-16T13:45:00.656Z,31.96
2022-08-16T13:47:18.652Z,32.05
2022-08-16T13:49:36.305Z,32.05
2022-08-16T13:51:55.079Z,32.02
2022-08-16T13:54:14.157Z,31.67
2022-08-16T13:56:37.590Z,31.05
2022-08-16T13:58:59.317Z,31.00
2022-08-16T14:01:19.618Z,31.08
2022-08-16T14:03:36.901Z,30.92
2022-08-16T14:05:54.150Z,31.01
2022-08-16T14:08:11.263Z,30.52
2022-08-16T14:10:28.544Z,30.27
2022-08-16T14:12:45.835Z,30.10
2022-08-16T14:15:04.952Z,29.92
2022-08-16T14:17:22.528Z,29.77
2022-08-16T14:19:44.939Z,29.74
2022-08-16T14:22:14.881Z,29.84
2022-08-16T14:24:32.814Z,30.04
2022-08-16T14:26:50.253Z,30.47
2022-08-16T14:29:07.295Z,30.78
2022-08-16T14:31:26.120Z,31.02
2022-08-16T14:33:43.740Z,31.33
2022-08-16T14:36:01.712Z,31.58
2022-08-16T14:38:18.995Z,31.68
2022-08-16T14:40:40.765Z,31.55
2022-08-16T14:43:07.374Z,31.89
2022-08-16T14:45:24.701Z,32.05
2022-08-16T14:47:41.748Z,32.03
2022-08-16T14:49:59.372Z,32.17
2022-08-16T14:52:20.474Z,32.20
2022-08-16T14:54:53.306Z,32.32
2022-08-16T14:57:11.296Z,32.29
2022-08-16T14:59:28.404Z,32.30
2022-08-16T15:01:59.234Z,32.21
2022-08-16T15:04:33.306Z,31.76
2022-08-16T15:06:54.940Z,31.30
2022-08-16T15:09:12.454Z,30.97
2022-08-16T15:11:34.252Z,30.64
2022-08-16T15:14:02.362Z,30.33
2022-08-16T15:16:19.336Z,30.07
2022-08-16T15:18:36.357Z,29.92
2022-08-16T15:20:56.280Z,29.79
2022-08-16T15:23:14.518Z,29.62
2022-08-16T15:25:32.862Z,29.53
2022-08-16T15:27:55.030Z,29.46
2022-08-16T15:30:57.875Z,29.38
2022-08-16T15:32:49.607Z,29.24
2022-08-16T15:35:07.784Z,29.21
2022-08-16T15:37:25.831Z,29.16
2022-08-16T15:39:59.520Z,29.08
2022-08-16T15:42:28.642Z,29.04
2022-08-16T15:44:53.013Z,29.13
2022-08-16T15:47:13.753Z,29.26
2022-08-16T15:49:36.915Z,29.30
2022-08-16T15:51:55.506Z,29.32
2022-08-16T15:54:29.486Z,29.26
2022-08-16T15:56:47.871Z,29.19
2022-08-16T15:59:05.204Z,29.01
2022-08-16T16:01:23.968Z,28.85
2022-08-16T16:03:41.006Z,28.74
2022-08-16T16:05:58.136Z,28.65
2022-08-16T16:08:24.044Z,28.52
2022-08-16T16:10:41.482Z,28.40
2022-08-16T16:12:58.817Z,28.31
2022-08-16T16:15:16.375Z,28.20
2022-08-16T16:17:33.709Z,28.12
2022-08-16T16:19:53.632Z,28.07
2022-08-16T16:22:10.832Z,27.98
2022-08-16T16:24:30.836Z,27.95
2022-08-16T16:26:48.479Z,27.81
2022-08-16T16:29:10.713Z,27.75
2022-08-16T16:31:34.508Z,27.62
2022-08-16T16:33:54.479Z,27.60
2022-08-16T16:36:11.487Z,27.70
2022-08-16T16:38:31.193Z,27.79
2022-08-16T16:40:54.185Z,27.86
2022-08-16T16:43:13.784Z,27.80
2022-08-16T16:45:33.337Z,27.74
2022-08-16T16:47:54.338Z,27.69
2022-08-16T16:50:13.109Z,27.55
2022-08-16T16:52:43.389Z,27.43
2022-08-16T16:55:01.962Z,27.34
2022-08-16T16:57:19.087Z,27.23
2022-08-16T16:59:36.375Z,27.12
2022-08-16T17:01:57.564Z,27.04
2022-08-16T17:04:19.576Z,26.93
2022-08-16T17:06:39.108Z,26.84
2022-08-16T17:08:58.727Z,26.78
2022-08-16T17:11:16.112Z,26.68
2022-08-16T17:13:35.174Z,26.61
2022-08-16T17:15:52.434Z,26.47
2022-08-16T17:19:16.578Z,26.28
2022-08-16T17:20:47.549Z,26.19
2022-08-16T17:23:05.544Z,26.08
2022-08-16T17:25:22.522Z,26.00
2022-08-16T17:27:39.848Z,25.93
2022-08-16T17:29:57.053Z,25.93
2022-08-16T17:32:47.412Z,25.84
2022-08-16T17:34:52.657Z,25.72
2022-08-16T17:37:09.688Z,25.64
2022-08-16T17:39:29.525Z,25.57
2022-08-16T17:41:46.783Z,25.54
2022-08-16T17:44:04.086Z,25.49
2022-08-16T17:46:50.478Z,25.54
2022-08-16T17:48:58.681Z,25.53
2022-08-16T17:51:15.817Z,25.50
2022-08-16T17:53:32.874Z,25.44
2022-08-16T17:55:50.294Z,25.36
2022-08-16T17:58:19.817Z,25.25
2022-08-16T18:00:40.327Z,25.10
2022-08-16T18:02:58.050Z,24.95
2022-08-16T18:05:15.486Z,24.86
2022-08-16T18:07:32.857Z,24.73
2022-08-16T18:09:52.296Z,24.63
2022-08-16T18:12:09.594Z,24.53
2022-08-16T18:14:52.486Z,24.45
2022-08-16T18:17:10.860Z,24.37
2022-08-16T18:19:27.822Z,24.27
2022-08-16T18:21:44.801Z,24.20
2022-08-16T18:24:02.136Z,24.06
2022-08-16T18:26:19.119Z,23.97
2022-08-16T18:28:36.354Z,23.90
2022-08-16T18:31:00.281Z,23.90
2022-08-16T18:33:17.980Z,23.94
2022-08-16T18:35:34.950Z,23.74
2022-08-16T18:37:51.906Z,23.62
2022-08-16T18:40:09.027Z,23.53
2022-08-16T18:42:27.623Z,23.47
2022-08-16T18:44:46.014Z,23.36
2022-08-16T18:47:03.081Z,23.31
2022-08-16T18:49:20.386Z,23.23
2022-08-16T18:51:37.545Z,23.18
2022-08-16T18:53:54.583Z,23.10
2022-08-16T18:56:11.689Z,23.08
2022-08-16T18:58:29.049Z,22.93
2022-08-16T19:00:56.982Z,22.83
2022-08-16T19:03:14.244Z,22.78
2022-08-16T19:05:32.263Z,22.72
2022-08-16T19:07:50.409Z,22.63
2022-08-16T19:10:07.666Z,22.57
2022-08-16T19:12:38.724Z,22.51
2022-08-16T19:14:59.517Z,22.42
2022-08-16T19:17:16.494Z,22.33
2022-08-16T19:19:33.738Z,22.23
2022-08-16T19:21:53.480Z,22.16
2022-08-16T19:24:12.601Z,22.12
2022-08-16T19:26:35.635Z,22.06
2022-08-16T19:28:59.743Z,22.02
2022-08-16T19:31:19.515Z,21.92
2022-08-16T19:33:37.851Z,21.87
2022-08-16T19:35:55.829Z,21.81
2022-08-16T19:38:13.053Z,21.77
2022-08-16T19:40:37.755Z,21.69
2022-08-16T19:42:56.297Z,21.64
2022-08-16T19:45:13.666Z,21.64
2022-08-16T19:47:30.668Z,21.60
2022-08-16T19:49:47.580Z,21.49
2022-08-16T19:52:04.853Z,21.37
2022-08-16T19:54:21.855Z,21.34
2022-08-16T19:56:38.981Z,21.33
2022-08-16T20:01:33.092Z,21.28
2022-08-16T20:03:50.341Z,21.23
2022-08-16T20:06:07.686Z,21.16
2022-08-16T20:08:29.152Z,21.10
2022-08-16T20:10:46.493Z,21.03
2022-08-16T20:13:04.116Z,20.95
2022-08-16T20:15:26.244Z,20.91
2022-08-16T20:17:43.822Z,20.87
2022-08-16T20:20:02.180Z,20.87
2022-08-16T20:22:42.282Z,20.82
2022-08-16T20:24:56.256Z,20.74
2022-08-16T20:27:13.228Z,20.74
2022-08-16T20:29:30.370Z,20.67
2022-08-16T20:31:47.694Z,20.60
2022-08-16T20:34:04.691Z,20.51
2022-08-16T20:36:21.959Z,20.45
2022-08-16T20:38:39.045Z,20.42
2022-08-16T20:41:01.899Z,20.39
2022-08-16T20:43:19.975Z,20.34
2022-08-16T20:45:37.060Z,20.30
2022-08-16T20:47:54.092Z,20.23
2022-08-16T20:50:11.194Z,20.21
2022-08-16T20:52:28.214Z,20.17
2022-08-16T20:54:45.319Z,20.13
2022-08-16T20:57:02.428Z,20.08
2022-08-16T20:59:19.502Z,20.03
2022-08-16T21:01:46.629Z,20.02
2022-08-16T21:04:06.952Z,19.96
2022-08-16T21:06:23.882Z,19.90
2022-08-16T21:08:52.369Z,19.82
2022-08-16T21:11:11.355Z,19.76
2022-08-16T21:13:29.909Z,19.69
2022-08-16T21:15:46.959Z,19.64
2022-08-16T21:18:05.294Z,19.59
2022-08-16T21:20:22.434Z,19.56
2022-08-16T21:22:39.541Z,19.52
2022-08-16T21:24:56.622Z,19.50
2022-08-16T21:27:17.383Z,19.45
2022-08-16T21:29:42.625Z,19.40
2022-08-16T21:32:00.121Z,19.34
2022-08-16T21:34:17.465Z,19.30
2022-08-16T21:36:35.565Z,19.26
2022-08-16T21:38:53.538Z,19.20
2022-08-16T21:41:10.865Z,19.16
2022-08-16T21:43:28.181Z,19.16
2022-08-16T21:45:45.199Z,19.16
2022-08-16T21:48:02.290Z,19.06
2022-08-16T21:50:19.237Z,19.06
2022-08-16T21:52:36.543Z,19.03
2022-08-16T21:54:54.143Z,18.97
2022-08-16T21:57:13.750Z,18.97
2022-08-16T21:59:31.064Z,18.94
2022-08-16T22:01:48.150Z,18.88
2022-08-16T22:04:37.113Z,18.85
2022-08-16T22:06:43.546Z,18.79
2022-08-16T22:09:00.552Z,18.72
2022-08-16T22:11:17.816Z,18.71
2022-08-16T22:13:36.865Z,18.68
2022-08-16T22:15:57.649Z,18.65
2022-08-16T22:18:14.994Z,18.60
2022-08-16T22:20:33.028Z,18.58
2022-08-16T22:22:50.296Z,18.51
2022-08-16T22:25:07.552Z,18.48
2022-08-16T22:27:24.625Z,18.41
2022-08-16T22:29:42.218Z,18.39
2022-08-16T22:31:59.612Z,18.36
2022-08-16T22:34:17.216Z,18.35
2022-08-16T22:36:34.495Z,18.33
2022-08-16T22:38:56.489Z,18.29
2022-08-16T22:41:14.823Z,18.26
2022-08-16T22:43:34.897Z,18.24
2022-08-16T22:45:51.866Z,18.19
2022-08-16T22:48:10.006Z,18.17
2022-08-16T22:50:27.402Z,18.17
2022-08-16T22:52:44.489Z,18.17
2022-08-16T22:55:13.529Z,18.22
2022-08-16T22:57:30.908Z,18.21
2022-08-16T22:59:49.463Z,18.18
2022-08-16T23:02:09.958Z,18.14
2022-08-16T23:04:27.341Z,18.08
2022-08-16T23:06:44.342Z,18.03
2022-08-16T23:09:01.358Z,17.96
2022-08-16T23:11:18.499Z,17.91
2022-08-16T23:13:36.857Z,17.91
2022-08-16T23:15:53.928Z,17.86
2022-08-16T23:18:14.406Z,17.87
2022-08-16T23:20:31.493Z,17.88
2022-08-16T23:23:20.415Z,17.88
2022-08-16T23:25:25.746Z,17.83
2022-08-16T23:27:42.755Z,17.79
2022-08-16T23:30:01.035Z,17.78
2022-08-16T23:32:18.276Z,17.74
2022-08-16T23:34:35.649Z,17.72
2022-08-16T23:36:52.747Z,17.70
2022-08-16T23:39:09.797Z,17.68
2022-08-16T23:41:27.223Z,17.64
2022-08-16T23:43:44.367Z,17.65
2022-08-16T23:46:01.490Z,17.62
2022-08-16T23:48:19.464Z,17.57
2022-08-16T23:50:37.586Z,17.58
2022-08-16T23:52:55.800Z,17.59
2022-08-16T23:55:12.997Z,17.56
2022-08-16T23:57:30.088Z,17.56
2022-08-16T23:59:52.295Z,17.54
